createdAt,value
2022-08-11T00:02:51.025Z,16.24
2022-08-11T00:06:08.228Z,16.14
2022-08-11T00:09:27.953Z,16.08
2022-08-11T00:12:44.480Z,16.06
2022-08-11T00:16:01.217Z,16.00
2022-08-11T00:20:11.686Z,15.96
2022-08-11T00:22:40.550Z,15.89
2022-08-11T00:25:59.513Z,15.85
2022-08-11T00:29:20.503Z,15.78
2022-08-11T00:32:38.398Z,15.74
2022-08-11T00:35:57.811Z,15.68
2022-08-11T00:39:18.085Z,15.63
2022-08-11T00:42:43.749Z,15.61
2022-08-11T00:46:27.747Z,15.57
2022-08-11T00:50:00.638Z,15.54
2022-08-11T00:53:42.440Z,15.50
2022-08-11T00:57:37.064Z,15.48
2022-08-11T01:01:14.550Z,15.44
2022-08-11T01:05:25.083Z,15.40
2022-08-11T01:09:30.310Z,15.33
2022-08-11T01:13:08.549Z,15.29
2022-08-11T01:16:47.535Z,15.24
2022-08-11T01:20:47.185Z,15.20
2022-08-11T01:24:40.288Z,15.18
2022-08-11T01:28:41.281Z,15.17
2022-08-11T01:32:50.870Z,15.17
2022-08-11T01:37:06.235Z,15.18
2022-08-11T01:40:46.564Z,15.09
2022-08-11T01:44:45.054Z,15.11
2022-08-11T01:48:08.201Z,15.03
2022-08-11T01:51:36.257Z,15.01
2022-08-11T01:54:57.883Z,14.97
2022-08-11T01:58:22.147Z,14.90
2022-08-11T02:02:01.349Z,14.95
2022-08-11T02:05:32.357Z,14.92
2022-08-11T02:08:58.075Z,14.93
2022-08-11T02:12:23.547Z,14.88
2022-08-11T02:15:45.579Z,14.88
2022-08-11T02:19:23.518Z,14.90
2022-08-11T02:23:03.847Z,14.88
2022-08-11T02:26:31.613Z,14.92
2022-08-11T02:29:55.336Z,14.92
2022-08-11T02:33:33.075Z,14.89
2022-08-11T02:36:58.623Z,14.88
2022-08-11T02:40:32.018Z,14.90
2022-08-11T02:43:55.591Z,14.96
2022-08-11T02:47:19.753Z,14.95
2022-08-11T02:50:41.593Z,14.95
2022-08-11T02:54:06.555Z,15.02
2022-08-11T02:57:28.308Z,15.06
2022-08-11T03:00:52.233Z,15.06
2022-08-11T03:04:13.630Z,15.01
2022-08-11T03:07:35.759Z,15.03
2022-08-11T03:11:16.840Z,15.03
2022-08-11T03:14:50.789Z,15.03
2022-08-11T03:18:17.341Z,15.07
2022-08-11T03:22:02.985Z,15.09
2022-08-11T03:25:12.909Z,15.07
2022-08-11T03:28:41.082Z,15.08
2022-08-11T03:32:02.807Z,15.13
2022-08-11T03:35:21.801Z,15.11
2022-08-11T03:38:44.607Z,15.09
2022-08-11T03:42:10.088Z,15.13
2022-08-11T03:45:38.785Z,15.14
2022-08-11T03:49:01.213Z,15.21
2022-08-11T03:52:28.324Z,15.25
2022-08-11T03:55:57.262Z,15.30
2022-08-11T03:59:57.852Z,15.35
2022-08-11T04:03:55.304Z,15.44
2022-08-11T04:07:36.587Z,15.52
2022-08-11T04:11:42.053Z,15.57
2022-08-11T04:15:44.985Z,15.64
2022-08-11T04:19:45.664Z,15.72
2022-08-11T04:24:36.134Z,15.80
2022-08-11T04:27:25.210Z,15.90
2022-08-11T04:30:57.846Z,16.04
2022-08-11T04:34:47.372Z,16.14
2022-08-11T04:38:39.497Z,16.30
2022-08-11T04:43:03.404Z,16.39
2022-08-11T04:46:53.877Z,16.55
2022-08-11T04:51:09.290Z,16.70
2022-08-11T04:54:28.628Z,16.84
2022-08-11T04:58:04.192Z,16.96
2022-08-11T05:01:48.387Z,17.11
2022-08-11T05:05:36.977Z,17.19
2022-08-11T05:09:42.395Z,17.23
2022-08-11T05:13:04.641Z,17.32
2022-08-11T05:16:38.450Z,17.41
2022-08-11T05:20:10.911Z,17.49
2022-08-11T05:23:44.666Z,17.53
2022-08-11T05:27:15.661Z,17.61
2022-08-11T05:30:51.035Z,17.71
2022-08-11T05:34:26.308Z,17.83
2022-08-11T05:38:03.946Z,17.97
2022-08-11T05:41:35.744Z,18.11
2022-08-11T05:45:15.610Z,18.27
2022-08-11T05:48:42.350Z,18.41
2022-08-11T05:52:16.533Z,18.54
2022-08-11T05:56:02.083Z,18.62
2022-08-11T05:59:07.669Z,18.72
2022-08-11T06:02:24.516Z,18.78
2022-08-11T06:05:46.423Z,18.80
2022-08-11T06:09:08.432Z,19.00
2022-08-11T06:12:33.070Z,19.10
2022-08-11T06:15:57.384Z,19.29
2022-08-11T06:19:15.146Z,19.48
2022-08-11T06:22:32.294Z,19.59
2022-08-11T06:25:48.925Z,19.84
2022-08-11T06:29:07.513Z,19.96
2022-08-11T06:32:25.465Z,20.06
2022-08-11T06:35:53.552Z,20.14
2022-08-11T06:39:18.383Z,20.24
2022-08-11T06:42:54.503Z,20.38
2022-08-11T06:46:13.942Z,20.48
2022-08-11T06:49:54.263Z,20.52
2022-08-11T06:53:13.200Z,20.63
2022-08-11T06:56:42.513Z,20.79
2022-08-11T07:00:13.249Z,20.95
2022-08-11T07:03:31.020Z,20.95
2022-08-11T07:07:29.900Z,21.08
2022-08-11T07:11:14.068Z,21.28
2022-08-11T07:14:48.048Z,21.32
2022-08-11T07:18:22.325Z,21.54
2022-08-11T07:22:10.295Z,21.98
2022-08-11T07:25:41.415Z,22.27
2022-08-11T07:29:02.532Z,22.52
2022-08-11T07:32:28.115Z,22.61
2022-08-11T07:35:50.598Z,22.69
2022-08-11T07:39:08.143Z,22.78
2022-08-11T07:42:29.490Z,23.16
2022-08-11T07:46:02.925Z,23.22
2022-08-11T07:49:34.383Z,23.15
2022-08-11T07:52:52.826Z,23.16
2022-08-11T07:56:14.566Z,23.22
2022-08-11T08:00:04.189Z,23.42
2022-08-11T08:03:23.354Z,23.70
2022-08-11T08:06:55.941Z,23.94
2022-08-11T08:10:28.792Z,24.30
2022-08-11T08:14:03.097Z,24.90
2022-08-11T08:17:35.857Z,25.23
2022-08-11T08:20:55.710Z,25.53
2022-08-11T08:24:14.711Z,25.76
2022-08-11T08:27:31.925Z,25.81
2022-08-11T08:30:53.421Z,26.07
2022-08-11T08:34:10.173Z,26.35
2022-08-11T08:37:47.270Z,26.71
2022-08-11T08:40:50.679Z,26.87
2022-08-11T08:47:43.017Z,27.26
2022-08-11T08:51:11.978Z,27.28
2022-08-11T08:54:33.545Z,26.90
2022-08-11T08:57:52.179Z,26.93
2022-08-11T09:01:11.828Z,27.48
2022-08-11T09:04:29.113Z,27.97
2022-08-11T09:07:48.367Z,27.71
2022-08-11T09:11:21.023Z,27.69
2022-08-11T09:14:51.290Z,27.93
2022-08-11T09:18:12.076Z,27.76
2022-08-11T09:21:39.775Z,27.46
2022-08-11T09:25:05.406Z,26.77
2022-08-11T09:28:24.486Z,27.08
2022-08-11T09:31:42.021Z,27.42
2022-08-11T09:35:02.457Z,27.74
2022-08-11T09:38:35.506Z,27.38
2022-08-11T09:42:00.780Z,26.88
2022-08-11T09:45:17.174Z,27.10
2022-08-11T09:48:39.942Z,27.44
2022-08-11T09:52:05.163Z,27.02
2022-08-11T09:55:22.185Z,27.47
2022-08-11T09:58:42.407Z,27.02
2022-08-11T10:01:56.747Z,27.15
2022-08-11T10:05:29.859Z,27.10
2022-08-11T10:08:51.618Z,26.68
2022-08-11T10:12:11.887Z,27.01
2022-08-11T10:16:00.131Z,27.29
2022-08-11T10:19:08.738Z,27.27
2022-08-11T10:22:43.915Z,27.21
2022-08-11T10:26:15.454Z,26.95
2022-08-11T10:29:51.262Z,27.06
2022-08-11T10:33:41.757Z,27.27
2022-08-11T10:37:03.333Z,27.70
2022-08-11T10:40:30.201Z,27.73
2022-08-11T10:44:05.554Z,27.56
2022-08-11T10:47:47.753Z,26.98
2022-08-11T10:51:49.989Z,26.62
2022-08-11T10:54:55.452Z,26.46
2022-08-11T10:58:26.289Z,26.20
2022-08-11T11:01:47.857Z,25.89
2022-08-11T11:05:19.890Z,25.66
2022-08-11T11:08:54.045Z,25.39
2022-08-11T11:12:28.942Z,25.15
2022-08-11T11:16:17.157Z,24.89
2022-08-11T11:24:36.196Z,24.00
2022-08-11T11:28:11.656Z,23.94
2022-08-11T11:31:38.945Z,23.92
2022-08-11T11:35:23.463Z,23.87
2022-08-11T11:38:39.966Z,24.10
2022-08-11T11:41:57.718Z,24.31
2022-08-11T11:45:23.957Z,24.46
2022-08-11T11:48:36.117Z,24.52
2022-08-11T11:55:10.917Z,24.24
2022-08-11T11:58:42.694Z,24.29
2022-08-11T12:01:59.605Z,24.33
2022-08-11T12:05:18.771Z,24.28
2022-08-11T12:08:36.725Z,24.15
2022-08-11T12:12:07.459Z,24.27
2022-08-11T12:16:04.494Z,24.22
2022-08-11T12:18:46.929Z,23.95
2022-08-11T12:22:20.868Z,23.78
2022-08-11T12:26:10.057Z,23.71
2022-08-11T12:29:12.129Z,23.75
2022-08-11T12:32:30.845Z,23.75
2022-08-11T12:39:06.137Z,23.96
2022-08-11T12:42:40.362Z,24.00
2022-08-11T12:46:01.821Z,23.64
2022-08-11T12:49:35.333Z,22.83
2022-08-11T12:52:55.814Z,22.52
2022-08-11T12:56:29.339Z,22.19
2022-08-11T13:00:07.275Z,21.54
2022-08-11T13:03:40.283Z,21.07
2022-08-11T13:06:57.062Z,20.82
2022-08-11T13:10:20.493Z,20.39
2022-08-11T13:13:55.270Z,20.43
2022-08-11T13:17:12.030Z,20.27
2022-08-11T13:21:20.804Z,19.96
2022-08-11T13:24:36.064Z,19.63
2022-08-11T13:27:53.901Z,19.27
2022-08-11T13:31:18.234Z,19.40
2022-08-11T13:34:39.278Z,19.37
2022-08-11T13:41:14.255Z,18.88
2022-08-11T13:44:28.467Z,18.78
2022-08-11T13:47:45.243Z,18.66
2022-08-11T13:51:15.725Z,18.59
2022-08-11T13:54:35.817Z,18.76
2022-08-11T13:58:08.501Z,18.84
2022-08-11T14:01:16.770Z,18.65
2022-08-11T14:04:34.377Z,18.65
2022-08-11T14:12:21.451Z,18.70
2022-08-11T14:14:43.718Z,18.77
2022-08-11T14:18:06.419Z,18.79
2022-08-11T14:21:39.186Z,18.88
2022-08-11T14:24:56.368Z,19.00
2022-08-11T14:28:30.943Z,19.01
2022-08-11T14:31:34.709Z,19.06
2022-08-11T14:34:52.396Z,19.08
2022-08-11T14:38:09.061Z,19.05
2022-08-11T14:42:10.831Z,19.06
2022-08-11T14:45:57.853Z,19.13
2022-08-11T14:48:49.211Z,19.18
2022-08-11T14:55:36.755Z,19.28
2022-08-11T14:58:53.370Z,19.26
2022-08-11T15:02:26.010Z,19.28
2022-08-11T15:05:56.453Z,19.32
2022-08-11T15:12:32.552Z,19.33
2022-08-11T15:15:56.399Z,19.39
2022-08-11T15:19:13.958Z,19.46
2022-08-11T15:22:44.319Z,19.48
2022-08-11T15:26:05.406Z,19.45
2022-08-11T15:29:43.390Z,19.51
2022-08-11T15:33:16.319Z,19.48
2022-08-11T15:40:03.340Z,19.53
2022-08-11T15:43:38.872Z,19.58
2022-08-11T15:46:59.006Z,19.63
2022-08-11T15:50:20.982Z,19.73
2022-08-11T15:53:44.159Z,19.80
2022-08-11T15:57:04.258Z,19.86
2022-08-11T16:00:45.890Z,19.93
2022-08-11T16:04:17.958Z,20.04
2022-08-11T16:07:42.002Z,20.15
2022-08-11T16:11:01.427Z,20.24
2022-08-11T16:14:37.651Z,20.30
2022-08-11T16:17:59.982Z,20.38
2022-08-11T16:27:09.390Z,20.51
2022-08-11T16:29:40.023Z,20.52
2022-08-11T16:33:02.140Z,20.49
2022-08-11T16:42:01.253Z,20.31
2022-08-11T16:45:29.872Z,20.18
2022-08-11T16:48:48.914Z,19.98
2022-08-11T16:52:06.346Z,19.73
2022-08-11T16:55:51.704Z,19.75
2022-08-11T16:59:01.776Z,19.70
2022-08-11T17:02:28.457Z,19.59
2022-08-11T17:06:03.882Z,19.47
2022-08-11T17:09:37.774Z,19.42
2022-08-11T17:13:15.943Z,19.33
2022-08-11T17:16:37.869Z,19.30
2022-08-11T17:20:41.888Z,19.23
2022-08-11T17:23:32.896Z,19.22
2022-08-11T17:27:02.176Z,19.16
2022-08-11T17:30:22.000Z,19.14
2022-08-11T17:33:55.155Z,19.06
2022-08-11T17:37:13.435Z,19.03
2022-08-11T17:40:32.038Z,18.90
2022-08-11T17:44:05.797Z,18.81
2022-08-11T17:47:38.609Z,18.81
2022-08-11T17:50:57.312Z,18.78
2022-08-11T17:57:47.784Z,18.70
2022-08-11T18:01:09.501Z,18.62
2022-08-11T18:04:27.767Z,18.63
2022-08-11T18:11:17.589Z,18.63
2022-08-11T18:14:49.216Z,18.58
2022-08-11T18:18:20.433Z,18.51
2022-08-11T18:26:50.132Z,18.43
2022-08-11T18:30:27.488Z,18.40
2022-08-11T18:34:07.337Z,18.26
2022-08-11T18:37:44.340Z,18.17
2022-08-11T18:41:17.344Z,18.15
2022-08-11T18:44:52.247Z,18.08
2022-08-11T18:48:27.884Z,18.01
2022-08-11T18:57:16.644Z,17.93
2022-08-11T19:00:49.046Z,17.85
2022-08-11T19:04:21.878Z,17.82
2022-08-11T19:08:02.846Z,17.76
2022-08-11T19:11:42.425Z,17.72
2022-08-11T19:15:10.674Z,17.66
2022-08-11T19:18:44.333Z,17.67
2022-08-11T19:22:16.673Z,17.70
2022-08-11T19:25:48.997Z,17.67
2022-08-11T19:30:11.211Z,17.69
2022-08-11T19:32:53.962Z,17.68
2022-08-11T19:36:24.845Z,17.66
2022-08-11T19:39:57.544Z,17.60
2022-08-11T19:43:29.973Z,17.49
2022-08-11T19:47:06.818Z,17.48
2022-08-11T19:50:37.873Z,17.49
2022-08-11T19:57:25.430Z,17.33
2022-08-11T20:00:56.105Z,17.35
2022-08-11T20:04:27.473Z,17.28
2022-08-11T20:07:58.741Z,17.13
2022-08-11T20:11:30.609Z,16.95
2022-08-11T20:15:03.631Z,16.96
2022-08-11T20:18:35.775Z,16.84
2022-08-11T20:26:29.745Z,16.66
2022-08-11T20:29:44.845Z,16.65
2022-08-11T20:33:16.070Z,16.61
2022-08-11T20:36:52.489Z,16.44
2022-08-11T20:40:23.988Z,16.38
2022-08-11T20:44:08.439Z,16.30
2022-08-11T20:47:30.613Z,16.23
2022-08-11T20:51:01.823Z,16.19
2022-08-11T20:57:58.801Z,16.25
2022-08-11T21:01:38.912Z,16.39
2022-08-11T21:05:00.106Z,16.42
2022-08-11T21:11:48.194Z,16.52
2022-08-11T21:15:39.223Z,16.57
2022-08-11T21:18:54.815Z,16.56
2022-08-11T21:22:28.638Z,16.50
2022-08-11T21:26:03.435Z,16.46
2022-08-11T21:29:35.690Z,16.49
2022-08-11T21:33:07.120Z,16.44
2022-08-11T21:36:40.287Z,16.22
2022-08-11T21:40:16.830Z,16.25
2022-08-11T21:43:46.704Z,16.14
2022-08-11T21:47:42.504Z,15.97
2022-08-11T21:50:50.174Z,15.99
2022-08-11T21:57:47.657Z,15.87
2022-08-11T22:01:10.917Z,15.89
2022-08-11T22:04:43.203Z,15.85
2022-08-11T22:11:32.446Z,15.74
2022-08-11T22:15:03.218Z,15.74
2022-08-11T22:18:33.503Z,15.68
2022-08-11T22:22:08.693Z,15.66
2022-08-11T22:25:46.449Z,15.56
2022-08-11T22:29:14.121Z,15.47
2022-08-11T22:32:45.559Z,15.44
2022-08-11T22:36:17.986Z,15.30
2022-08-11T22:43:04.620Z,15.22
2022-08-11T22:46:35.679Z,15.17
2022-08-11T22:50:08.700Z,15.13
2022-08-11T22:53:57.428Z,15.13
2022-08-11T22:57:12.931Z,15.10
2022-08-11T23:00:43.239Z,15.00
2022-08-11T23:04:15.200Z,14.99
2022-08-11T23:12:06.316Z,14.90
2022-08-11T23:15:23.957Z,14.80
2022-08-11T23:18:54.903Z,14.76
2022-08-11T23:22:36.856Z,14.61
2022-08-11T23:29:36.658Z,14.60
2022-08-11T23:33:11.221Z,14.65
2022-08-11T23:36:47.110Z,14.72
2022-08-11T23:40:15.532Z,14.63
2022-08-11T23:43:46.443Z,14.60
2022-08-11T23:47:20.389Z,14.52
2022-08-11T23:50:51.076Z,14.51
2022-08-11T23:54:23.077Z,14.50
2022-08-11T23:57:54.086Z,14.47
